createdAt,value
2023-04-03T00:01:21.387Z,0.18
2023-04-03T00:03:48.383Z,0.06
2023-04-03T00:06:15.411Z,0.02
2023-04-03T00:08:42.414Z,-0.02
2023-04-03T00:11:09.718Z,-0.03
2023-04-03T00:13:37.065Z,-0.03
2023-04-03T00:16:04.346Z,-0.03
2023-04-03T00:18:31.450Z,-0.08
2023-04-03T00:20:58.648Z,-0.06
2023-04-03T00:23:25.563Z,-0.02
2023-04-03T00:25:53.411Z,-0.10
2023-04-03T00:28:20.394Z,-0.09
2023-04-03T00:30:47.497Z,-0.09
2023-04-03T00:33:15.052Z,-0.07
2023-04-03T00:35:42.560Z,-0.19
2023-04-03T00:38:09.762Z,-0.06
2023-04-03T00:40:38.903Z,0.03
2023-04-03T00:43:13.406Z,0.07
2023-04-03T00:45:42.932Z,0.01
2023-04-03T00:48:14.985Z,0.02
2023-04-03T00:50:43.662Z,0.02
2023-04-03T00:53:15.563Z,0.01
2023-04-03T00:55:43.115Z,0.03
2023-04-03T00:58:11.269Z,-0.00
2023-04-03T01:00:41.549Z,0.04
2023-04-03T01:03:08.345Z,0.07
2023-04-03T01:05:35.409Z,0.10
2023-04-03T01:08:02.900Z,0.02
2023-04-03T01:10:29.830Z,0.06
2023-04-03T01:12:56.796Z,0.09
2023-04-03T01:15:27.282Z,0.14
2023-04-03T01:17:59.374Z,0.09
2023-04-03T01:20:26.186Z,0.16
2023-04-03T01:23:11.148Z,0.16
2023-04-03T01:25:42.869Z,0.09
2023-04-03T01:28:13.507Z,0.22
2023-04-03T01:30:54.146Z,0.22
2023-04-03T01:33:21.307Z,0.18
2023-04-03T01:35:48.075Z,0.24
2023-04-03T01:38:14.881Z,0.30
2023-04-03T01:40:41.603Z,0.27
2023-04-03T01:43:09.237Z,0.42
2023-04-03T01:45:36.239Z,0.46
2023-04-03T01:48:03.563Z,0.43
2023-04-03T01:50:30.340Z,0.43
2023-04-03T01:52:57.166Z,0.45
2023-04-03T01:55:23.966Z,0.42
2023-04-03T01:57:50.815Z,0.39
2023-04-03T02:00:17.780Z,0.36
2023-04-03T02:02:44.571Z,0.35
2023-04-03T02:05:11.643Z,0.37
2023-04-03T02:07:38.368Z,0.35
2023-04-03T02:10:05.538Z,0.35
2023-04-03T02:12:32.349Z,0.37
2023-04-03T02:14:59.113Z,0.36
2023-04-03T02:17:26.084Z,0.32
2023-04-03T02:19:52.777Z,0.30
2023-04-03T02:22:20.177Z,0.31
2023-04-03T02:24:47.026Z,0.28
2023-04-03T02:27:14.164Z,0.21
2023-04-03T02:29:40.844Z,0.04
2023-04-03T02:32:07.681Z,0.01
2023-04-03T02:34:34.401Z,0.08
2023-04-03T02:37:01.097Z,0.01
2023-04-03T02:39:28.044Z,0.07
2023-04-03T02:41:54.719Z,0.14
2023-04-03T02:44:21.508Z,0.20
2023-04-03T02:46:48.256Z,0.22
2023-04-03T02:49:15.014Z,0.27
2023-04-03T02:51:42.078Z,0.29
2023-04-03T02:54:09.233Z,0.27
2023-04-03T02:56:35.907Z,0.38
2023-04-03T02:59:03.070Z,0.35
2023-04-03T03:01:32.525Z,0.35
2023-04-03T03:04:01.119Z,0.29
2023-04-03T03:06:27.952Z,0.30
2023-04-03T03:08:54.656Z,0.31
2023-04-03T03:11:22.019Z,0.16
2023-04-03T03:13:48.969Z,0.15
2023-04-03T03:16:15.948Z,0.19
2023-04-03T03:18:43.050Z,0.22
2023-04-03T03:21:10.757Z,0.23
2023-04-03T03:23:37.669Z,0.19
2023-04-03T03:26:07.718Z,0.19
2023-04-03T03:28:35.522Z,0.20
2023-04-03T03:31:03.351Z,0.21
2023-04-03T03:33:30.288Z,0.15
2023-04-03T03:35:57.639Z,0.14
2023-04-03T03:38:24.649Z,0.20
2023-04-03T03:40:52.546Z,0.16
2023-04-03T03:43:19.427Z,0.17
2023-04-03T03:45:47.709Z,0.06
2023-04-03T03:48:14.500Z,0.06
2023-04-03T03:50:41.175Z,-0.01
2023-04-03T03:53:07.887Z,-0.05
2023-04-03T03:55:34.929Z,0.05
2023-04-03T03:58:02.177Z,0.02
2023-04-03T04:00:28.984Z,-0.14
2023-04-03T04:02:58.728Z,-0.09
2023-04-03T04:05:26.073Z,-0.08
2023-04-03T04:07:52.881Z,-0.22
2023-04-03T04:10:19.685Z,-0.15
2023-04-03T04:12:46.450Z,-0.12
2023-04-03T04:15:13.373Z,-0.16
2023-04-03T04:17:40.340Z,-0.14
2023-04-03T04:20:07.725Z,-0.12
2023-04-03T04:22:34.443Z,-0.09
2023-04-03T04:25:01.324Z,-0.16
2023-04-03T04:27:28.061Z,-0.16
2023-04-03T04:29:54.826Z,-0.21
2023-04-03T04:32:21.744Z,-0.21
2023-04-03T04:34:48.537Z,-0.10
2023-04-03T04:37:15.508Z,-0.13
2023-04-03T04:39:42.255Z,-0.13
2023-04-03T04:42:14.653Z,-0.07
2023-04-03T04:44:43.581Z,-0.03
2023-04-03T04:47:10.629Z,-0.02
2023-04-03T04:49:37.758Z,0.08
2023-04-03T04:52:04.646Z,0.07
2023-04-03T04:54:31.401Z,0.12
2023-04-03T04:56:58.331Z,0.12
2023-04-03T04:59:25.421Z,0.21
2023-04-03T05:01:52.305Z,0.19
2023-04-03T05:04:19.432Z,0.23
2023-04-03T05:06:46.209Z,0.63
2023-04-03T05:09:13.338Z,0.64
2023-04-03T05:11:40.474Z,0.48
2023-04-03T05:14:07.629Z,0.49
2023-04-03T05:16:35.123Z,0.55
2023-04-03T05:19:02.060Z,0.82
2023-04-03T05:21:32.950Z,0.87
2023-04-03T05:24:04.014Z,1.10
2023-04-03T05:26:31.800Z,1.10
2023-04-03T05:28:59.079Z,1.31
2023-04-03T05:31:25.996Z,1.33
2023-04-03T05:33:52.759Z,1.43
2023-04-03T05:36:19.924Z,1.58
2023-04-03T05:38:47.475Z,1.77
2023-04-03T05:41:15.159Z,2.05
2023-04-03T05:43:42.121Z,2.12
2023-04-03T05:46:13.638Z,2.38
2023-04-03T05:48:40.511Z,2.44
2023-04-03T05:51:08.182Z,2.57
2023-04-03T05:53:40.263Z,2.61
2023-04-03T05:56:06.950Z,2.65
2023-04-03T05:58:33.712Z,2.90
2023-04-03T06:01:01.003Z,3.10
2023-04-03T06:03:27.931Z,3.91
2023-04-03T06:05:54.860Z,4.07
2023-04-03T06:08:21.908Z,4.69
2023-04-03T06:10:48.932Z,4.75
2023-04-03T06:13:16.067Z,4.82
2023-04-03T06:15:43.098Z,4.72
2023-04-03T06:18:09.913Z,4.97
2023-04-03T06:20:37.148Z,4.91
2023-04-03T06:23:04.068Z,4.87
2023-04-03T06:25:31.076Z,4.78
2023-04-03T06:27:57.914Z,4.67
2023-04-03T06:30:24.632Z,5.24
2023-04-03T06:32:51.387Z,5.35
2023-04-03T06:35:18.362Z,5.38
2023-04-03T06:37:45.398Z,5.86
2023-04-03T06:40:21.626Z,5.80
2023-04-03T06:42:48.798Z,5.76
2023-04-03T06:45:15.678Z,5.93
2023-04-03T06:47:42.622Z,5.10
2023-04-03T06:50:12.696Z,5.37
2023-04-03T06:52:41.016Z,5.64
2023-04-03T06:55:08.425Z,6.16
2023-04-03T06:57:35.474Z,6.06
2023-04-03T07:00:02.552Z,6.37
2023-04-03T07:02:29.324Z,6.20
2023-04-03T07:04:56.553Z,5.81
2023-04-03T07:07:23.357Z,6.10
2023-04-03T07:09:50.365Z,6.43
2023-04-03T07:12:17.635Z,6.70
2023-04-03T07:14:44.891Z,6.73
2023-04-03T07:17:11.557Z,6.69
2023-04-03T07:19:38.432Z,7.19
2023-04-03T07:22:05.130Z,7.26
2023-04-03T07:24:31.785Z,6.91
2023-04-03T07:26:58.655Z,6.95
2023-04-03T07:29:25.445Z,7.14
2023-04-03T07:31:52.569Z,7.07
2023-04-03T07:34:19.460Z,7.15
2023-04-03T07:36:46.227Z,6.81
2023-04-03T07:39:13.057Z,6.63
2023-04-03T07:41:40.038Z,6.69
2023-04-03T07:44:06.946Z,6.96
2023-04-03T07:46:33.736Z,6.55
2023-04-03T07:49:00.707Z,6.79
2023-04-03T07:51:27.930Z,6.75
2023-04-03T07:53:55.018Z,6.72
2023-04-03T07:56:21.926Z,6.97
2023-04-03T07:58:48.705Z,6.85
2023-04-03T08:01:15.669Z,6.93
2023-04-03T08:03:42.742Z,6.65
2023-04-03T08:06:15.644Z,6.36
2023-04-03T08:08:43.432Z,7.05
2023-04-03T08:11:11.652Z,7.23
2023-04-03T08:13:38.908Z,7.45
2023-04-03T08:16:11.346Z,8.58
2023-04-03T08:18:40.063Z,8.28
2023-04-03T08:21:08.437Z,8.47
2023-04-03T08:23:35.308Z,8.22
2023-04-03T08:26:17.339Z,7.61
2023-04-03T08:28:44.389Z,6.38
2023-04-03T08:31:15.422Z,6.74
2023-04-03T08:33:42.493Z,6.70
2023-04-03T08:36:21.371Z,6.39
2023-04-03T08:38:48.981Z,6.78
2023-04-03T08:41:37.072Z,6.93
2023-04-03T08:44:26.081Z,7.14
2023-04-03T08:47:02.004Z,7.54
2023-04-03T08:49:28.702Z,7.31
2023-04-03T08:51:57.258Z,8.04
2023-04-03T08:54:36.598Z,8.86
2023-04-03T08:57:07.099Z,9.26
2023-04-03T08:59:38.256Z,9.20
2023-04-03T09:02:30.209Z,8.97
2023-04-03T09:04:58.049Z,9.11
2023-04-03T09:07:45.090Z,9.94
2023-04-03T09:10:15.249Z,10.43
2023-04-03T09:12:58.478Z,10.59
2023-04-03T09:15:37.857Z,10.85
2023-04-03T09:18:24.748Z,11.07
2023-04-03T09:21:09.051Z,11.27
2023-04-03T09:23:46.666Z,9.52
2023-04-03T09:26:27.281Z,10.68
2023-04-03T09:28:59.081Z,9.53
2023-04-03T09:31:30.294Z,11.01
2023-04-03T09:34:04.447Z,10.54
2023-04-03T09:36:48.659Z,11.00
2023-04-03T09:39:21.850Z,12.03
2023-04-03T09:42:03.495Z,12.01
2023-04-03T09:44:38.707Z,12.49
2023-04-03T09:47:27.497Z,11.28
2023-04-03T09:50:13.201Z,12.74
2023-04-03T09:52:41.912Z,12.81
2023-04-03T09:55:15.404Z,13.35
2023-04-03T09:57:42.308Z,13.08
2023-04-03T10:00:26.309Z,12.08
2023-04-03T10:02:56.862Z,12.91
2023-04-03T10:05:34.922Z,11.61
2023-04-03T10:08:35.629Z,11.19
2023-04-03T10:11:11.065Z,10.83
2023-04-03T10:13:51.350Z,11.84
2023-04-03T10:16:23.348Z,12.94
2023-04-03T10:18:58.620Z,12.46
2023-04-03T10:21:44.089Z,12.87
2023-04-03T10:24:10.726Z,12.75
2023-04-03T10:26:59.889Z,12.61
2023-04-03T10:29:46.650Z,12.65
2023-04-03T10:32:29.285Z,12.90
2023-04-03T10:35:17.299Z,12.59
2023-04-03T10:38:04.360Z,13.00
2023-04-03T10:40:56.932Z,13.41
2023-04-03T10:43:37.550Z,13.93
2023-04-03T10:46:17.802Z,13.55
2023-04-03T10:49:12.906Z,13.48
2023-04-03T10:52:06.098Z,14.17
2023-04-03T10:54:46.258Z,14.18
2023-04-03T10:57:13.998Z,14.03
2023-04-03T11:00:02.249Z,14.22
2023-04-03T11:02:31.103Z,14.97
2023-04-03T11:05:26.146Z,14.52
2023-04-03T11:07:54.410Z,14.68
2023-04-03T11:10:27.262Z,14.87
2023-04-03T11:13:02.932Z,14.84
2023-04-03T11:15:34.478Z,15.36
2023-04-03T11:18:33.533Z,14.89
2023-04-03T11:21:08.055Z,14.72
2023-04-03T11:23:49.534Z,14.86
2023-04-03T11:26:22.002Z,15.13
2023-04-03T11:28:54.344Z,15.27
2023-04-03T11:31:31.085Z,13.92
2023-04-03T11:34:39.332Z,14.42
2023-04-03T11:37:24.846Z,14.91
2023-04-03T11:39:58.585Z,14.63
2023-04-03T11:42:41.852Z,14.87
2023-04-03T11:45:27.723Z,15.00
2023-04-03T11:48:04.876Z,14.99
2023-04-03T11:50:42.838Z,15.24
2023-04-03T11:53:13.091Z,14.78
2023-04-03T11:55:48.958Z,13.03
2023-04-03T11:58:17.066Z,14.21
2023-04-03T12:00:56.045Z,14.89
2023-04-03T12:03:30.076Z,15.00
2023-04-03T12:06:00.205Z,14.26
2023-04-03T12:08:44.179Z,14.14
2023-04-03T12:11:19.868Z,13.33
2023-04-03T12:13:49.652Z,14.94
2023-04-03T12:16:38.807Z,14.79
2023-04-03T12:19:46.006Z,15.09
2023-04-03T12:22:15.610Z,15.08
2023-04-03T12:24:44.934Z,13.96
2023-04-03T12:27:30.819Z,14.15
2023-04-03T12:30:15.602Z,13.55
2023-04-03T12:33:12.554Z,14.21
2023-04-03T12:35:55.855Z,14.32
2023-04-03T12:39:02.821Z,14.30
2023-04-03T12:41:43.682Z,14.21
2023-04-03T12:44:27.124Z,13.95
2023-04-03T12:46:54.591Z,15.07
2023-04-03T12:49:24.532Z,14.55
2023-04-03T12:51:51.644Z,14.42
2023-04-03T12:54:37.060Z,14.98
2023-04-03T12:57:18.760Z,14.04
2023-04-03T12:59:47.689Z,13.77
2023-04-03T13:02:35.773Z,14.27
2023-04-03T13:05:09.903Z,14.12
2023-04-03T13:07:40.022Z,14.53
2023-04-03T13:10:09.921Z,15.24
2023-04-03T13:12:50.677Z,14.60
2023-04-03T13:15:29.347Z,14.29
2023-04-03T13:17:56.659Z,14.26
2023-04-03T13:20:36.923Z,14.19
2023-04-03T13:23:09.906Z,14.11
2023-04-03T13:25:42.115Z,13.89
2023-04-03T13:28:14.549Z,13.39
2023-04-03T13:30:54.983Z,14.14
2023-04-03T13:33:27.800Z,13.73
2023-04-03T13:36:19.489Z,14.18
2023-04-03T13:38:46.784Z,14.63
2023-04-03T13:41:36.410Z,14.95
2023-04-03T13:44:28.648Z,14.09
2023-04-03T13:47:12.344Z,14.47
2023-04-03T13:49:47.115Z,14.28
2023-04-03T13:52:33.709Z,14.40
2023-04-03T13:55:05.788Z,15.23
2023-04-03T14:07:28.329Z,14.70
2023-04-03T14:28:42.654Z,14.64
2023-04-03T14:31:18.033Z,14.07
2023-04-03T14:33:50.920Z,14.39
2023-04-03T14:36:22.535Z,14.54
2023-04-03T14:38:50.645Z,13.85
2023-04-03T14:41:21.241Z,14.12
2023-04-03T14:43:48.518Z,13.89
2023-04-03T14:46:18.975Z,13.95
2023-04-03T14:48:46.025Z,12.61
2023-04-03T14:51:14.796Z,12.75
2023-04-03T14:53:43.612Z,12.74
2023-04-03T14:56:16.786Z,12.05
2023-04-03T14:58:44.404Z,11.82
2023-04-03T15:01:13.056Z,11.73
2023-04-03T15:03:40.197Z,11.61
2023-04-03T15:06:07.383Z,11.29
2023-04-03T15:08:34.418Z,10.69
2023-04-03T15:11:02.022Z,10.31
2023-04-03T15:13:28.809Z,10.40
2023-04-03T15:15:55.682Z,10.13
2023-04-03T15:18:30.858Z,9.74
2023-04-03T15:20:58.021Z,9.41
2023-04-03T15:23:29.221Z,9.46
2023-04-03T15:25:56.374Z,9.06
2023-04-03T15:28:27.806Z,9.19
2023-04-03T15:30:54.842Z,8.65
2023-04-03T15:33:23.634Z,9.03
2023-04-03T15:35:50.769Z,9.52
2023-04-03T15:38:17.658Z,9.88
2023-04-03T15:40:44.758Z,9.22
2023-04-03T15:43:11.969Z,10.03
2023-04-03T15:45:39.520Z,9.64
2023-04-03T15:48:06.876Z,9.98
2023-04-03T15:50:35.651Z,9.55
2023-04-03T15:53:02.884Z,10.34
2023-04-03T15:55:32.995Z,10.30
2023-04-03T15:58:00.268Z,10.31
2023-04-03T16:00:27.592Z,10.63
2023-04-03T16:02:58.803Z,10.65
2023-04-03T16:05:26.213Z,10.97
2023-04-03T16:07:53.022Z,10.52
2023-04-03T16:10:20.307Z,10.99
2023-04-03T16:12:47.161Z,10.51
2023-04-03T16:15:14.204Z,10.46
2023-04-03T16:17:44.443Z,10.21
2023-04-03T16:20:13.989Z,10.34
2023-04-03T16:22:41.668Z,10.41
2023-04-03T16:25:09.797Z,10.40
2023-04-03T16:27:36.697Z,9.91
2023-04-03T16:30:04.035Z,9.88
2023-04-03T16:32:32.380Z,9.77
2023-04-03T16:37:33.150Z,9.82
2023-04-03T16:40:00.145Z,9.52
2023-04-03T16:42:27.039Z,9.85
2023-04-03T16:44:53.960Z,9.44
2023-04-03T16:47:20.852Z,8.56
2023-04-03T16:49:48.270Z,8.79
2023-04-03T16:52:15.501Z,8.82
2023-04-03T16:54:42.472Z,8.79
2023-04-03T16:57:09.398Z,8.22
2023-04-03T16:59:36.162Z,7.55
2023-04-03T17:02:03.698Z,7.60
2023-04-03T17:04:30.465Z,7.28
2023-04-03T17:06:58.072Z,7.22
2023-04-03T17:09:25.001Z,7.01
2023-04-03T17:11:52.102Z,6.33
2023-04-03T17:14:18.992Z,6.45
2023-04-03T17:16:46.127Z,6.24
2023-04-03T17:19:13.150Z,6.09
2023-04-03T17:21:40.325Z,5.91
2023-04-03T17:24:09.446Z,5.68
2023-04-03T17:26:37.521Z,5.48
2023-04-03T17:29:04.958Z,5.60
2023-04-03T17:31:31.902Z,5.45
2023-04-03T17:34:01.743Z,5.22
2023-04-03T17:36:34.561Z,5.07
2023-04-03T17:39:01.417Z,4.90
2023-04-03T17:41:28.355Z,4.94
2023-04-03T17:43:57.158Z,4.62
2023-04-03T17:46:25.917Z,5.09
2023-04-03T17:48:53.508Z,4.83
2023-04-03T17:51:23.091Z,4.66
2023-04-03T17:53:50.251Z,4.64
2023-04-03T17:56:22.817Z,4.52
2023-04-03T17:58:50.887Z,4.48
2023-04-03T18:01:22.902Z,4.47
2023-04-03T18:03:52.062Z,4.33
2023-04-03T18:06:21.166Z,4.42
2023-04-03T18:08:57.933Z,4.34
2023-04-03T18:11:28.214Z,4.13
2023-04-03T18:13:59.616Z,4.10
2023-04-03T18:16:28.509Z,4.06
2023-04-03T18:19:11.656Z,4.64
2023-04-03T18:21:42.720Z,4.01
2023-04-03T18:24:13.184Z,3.90
2023-04-03T18:26:42.759Z,3.87
2023-04-03T18:29:11.711Z,3.94
2023-04-03T18:31:41.667Z,3.78
2023-04-03T18:34:08.557Z,3.68
2023-04-03T18:36:35.371Z,3.57
2023-04-03T18:39:02.683Z,3.97
2023-04-03T18:41:35.439Z,3.75
2023-04-03T18:44:04.763Z,3.65
2023-04-03T18:46:33.096Z,3.50
2023-04-03T18:49:00.398Z,3.52
2023-04-03T18:51:27.522Z,3.41
2023-04-03T18:53:54.302Z,3.39
2023-04-03T18:56:22.267Z,3.28
2023-04-03T18:58:49.422Z,3.25
2023-04-03T19:01:16.550Z,3.17
2023-04-03T19:03:43.742Z,3.29
2023-04-03T19:06:10.894Z,3.59
2023-04-03T19:08:37.831Z,3.12
2023-04-03T19:11:04.903Z,3.18
2023-04-03T19:13:32.602Z,3.10
2023-04-03T19:16:00.159Z,3.11
2023-04-03T19:18:27.273Z,3.02
2023-04-03T19:20:57.707Z,2.99
2023-04-03T19:23:25.225Z,2.96
2023-04-03T19:26:03.263Z,2.95
2023-04-03T19:28:30.933Z,2.90
2023-04-03T19:30:59.251Z,2.88
2023-04-03T19:33:26.902Z,2.82
2023-04-03T19:35:53.856Z,2.78
2023-04-03T19:38:21.170Z,2.74
2023-04-03T19:40:48.117Z,2.73
2023-04-03T19:43:16.735Z,2.73
2023-04-03T19:45:46.087Z,2.52
2023-04-03T19:48:13.416Z,2.61
2023-04-03T19:50:40.803Z,2.57
2023-04-03T19:53:10.345Z,2.59
2023-04-03T19:55:38.046Z,2.53
2023-04-03T19:58:04.960Z,2.45
2023-04-03T20:00:31.925Z,2.42
2023-04-03T20:02:58.900Z,2.32
2023-04-03T20:05:25.787Z,2.27
2023-04-03T20:07:56.008Z,2.27
2023-04-03T20:10:23.086Z,2.29
2023-04-03T20:12:50.435Z,2.21
2023-04-03T20:15:17.952Z,2.15
2023-04-03T20:17:44.906Z,2.05
2023-04-03T20:20:11.928Z,1.88
2023-04-03T20:22:39.679Z,1.79
2023-04-03T20:25:09.203Z,1.67
2023-04-03T20:27:36.218Z,1.62
2023-04-03T20:30:05.121Z,3.49
2023-04-03T20:32:32.318Z,2.44
2023-04-03T20:35:04.416Z,1.70
2023-04-03T20:37:34.456Z,1.51
2023-04-03T20:40:01.321Z,1.38
2023-04-03T20:42:28.136Z,1.35
2023-04-03T20:44:57.327Z,2.70
2023-04-03T20:47:25.244Z,1.56
2023-04-03T20:49:53.657Z,1.24
2023-04-03T20:52:20.746Z,1.20
2023-04-03T20:54:47.607Z,1.12
2023-04-03T20:57:14.687Z,1.08
2023-04-03T20:59:42.404Z,1.07
2023-04-03T21:02:09.264Z,1.04
2023-04-03T21:04:46.578Z,0.94
2023-04-03T21:07:53.431Z,0.87
2023-04-03T21:10:59.161Z,0.86
2023-04-03T21:14:03.912Z,0.68
2023-04-03T21:16:30.819Z,0.58
2023-04-03T21:19:20.972Z,0.57
2023-04-03T21:21:49.027Z,0.66
2023-04-03T21:24:17.499Z,0.65
2023-04-03T21:26:45.334Z,0.57
2023-04-03T21:29:12.757Z,0.57
2023-04-03T21:31:53.360Z,0.43
2023-04-03T21:34:21.849Z,0.49
2023-04-03T21:36:51.700Z,0.37
2023-04-03T21:39:19.414Z,0.35
2023-04-03T21:41:47.022Z,0.22
2023-04-03T21:44:13.795Z,0.22
2023-04-03T21:46:40.668Z,0.14
2023-04-03T21:49:07.677Z,0.25
2023-04-03T21:51:35.434Z,0.19
2023-04-03T21:54:02.464Z,0.19
2023-04-03T21:56:31.416Z,0.17
2023-04-03T21:59:01.456Z,0.10
2023-04-03T22:01:28.517Z,0.04
2023-04-03T22:03:58.900Z,0.02
2023-04-03T22:06:26.833Z,0.06
2023-04-03T22:08:53.679Z,0.16
2023-04-03T22:11:22.968Z,0.13
2023-04-03T22:13:52.230Z,-0.00
2023-04-03T22:16:19.099Z,0.02
2023-04-03T22:18:46.092Z,-0.00
2023-04-03T22:21:12.883Z,0.04
2023-04-03T22:23:39.772Z,-0.05
2023-04-03T22:26:11.662Z,-0.03
2023-04-03T22:28:43.714Z,-0.07
2023-04-03T22:31:14.226Z,0.50
2023-04-03T22:33:43.221Z,-0.14
2023-04-03T22:36:11.778Z,-0.20
2023-04-03T22:38:39.423Z,-0.14
2023-04-03T22:41:08.008Z,-0.15
2023-04-03T22:43:36.433Z,-0.20
2023-04-03T22:46:11.326Z,-0.24
2023-04-03T22:48:40.867Z,-0.27
2023-04-03T22:51:08.425Z,-0.28
2023-04-03T22:53:36.354Z,-0.24
2023-04-03T22:56:08.494Z,-0.39
2023-04-03T22:58:35.369Z,-0.39
2023-04-03T23:01:13.008Z,-0.35
2023-04-03T23:03:41.768Z,-0.30
2023-04-03T23:06:10.023Z,-0.47
2023-04-03T23:08:41.069Z,-0.50
2023-04-03T23:11:09.497Z,-0.50
2023-04-03T23:13:36.596Z,-0.49
2023-04-03T23:16:04.256Z,-0.49
2023-04-03T23:18:32.503Z,-0.52
2023-04-03T23:21:00.205Z,-0.54
2023-04-03T23:23:27.159Z,-0.57
2023-04-03T23:25:54.956Z,-0.60
2023-04-03T23:28:21.874Z,-0.67
2023-04-03T23:30:49.149Z,-0.59
2023-04-03T23:33:15.999Z,-0.67
2023-04-03T23:35:46.409Z,-0.68
2023-04-03T23:38:13.955Z,-0.77
2023-04-03T23:40:45.102Z,-0.79
2023-04-03T23:43:12.690Z,-0.80
2023-04-03T23:45:39.976Z,-0.86
2023-04-03T23:48:06.836Z,-0.89
2023-04-03T23:50:33.584Z,-0.87
2023-04-03T23:53:00.876Z,-0.87
2023-04-03T23:55:27.714Z,-0.98
2023-04-03T23:57:54.480Z,-0.96
